sensor_id;sensor_type;location;lat;lon;timestamp;temperature;humidity
20654;DHT22;21083;50.898;4.902;2023-06-14T00:00:42;22.20;99.90
20654;DHT22;21083;50.898;4.902;2023-06-14T00:03:10;22.10;99.90
20654;DHT22;21083;50.898;4.902;2023-06-14T00:05:37;22.00;99.90
20654;DHT22;21083;50.898;4.902;2023-06-14T00:08:08;22.00;99.90
20654;DHT22;21083;50.898;4.902;2023-06-14T00:10:35;21.90;99.90
20654;DHT22;21083;50.898;4.902;2023-06-14T00:13:02;21.90;99.90
20654;DHT22;21083;50.898;4.902;2023-06-14T00:15:31;21.90;99.90
20654;DHT22;21083;50.898;4.902;2023-06-14T00:17:58;21.80;99.90
20654;DHT22;21083;50.898;4.902;2023-06-14T00:20:26;21.70;99.90
20654;DHT22;21083;50.898;4.902;2023-06-14T00:22:53;21.70;99.90
20654;DHT22;21083;50.898;4.902;2023-06-14T00:25:22;21.70;99.90
20654;DHT22;21083;50.898;4.902;2023-06-14T00:27:49;21.70;99.90
20654;DHT22;21083;50.898;4.902;2023-06-14T00:30:16;21.60;99.90
20654;DHT22;21083;50.898;4.902;2023-06-14T00:32:45;21.50;99.90
20654;DHT22;21083;50.898;4.902;2023-06-14T00:35:12;21.40;99.90
20654;DHT22;21083;50.898;4.902;2023-06-14T00:37:39;21.40;99.90
20654;DHT22;21083;50.898;4.902;2023-06-14T00:40:07;21.50;99.90
20654;DHT22;21083;50.898;4.902;2023-06-14T00:42:34;21.40;99.90
20654;DHT22;21083;50.898;4.902;2023-06-14T00:45:01;21.40;99.90
20654;DHT22;21083;50.898;4.902;2023-06-14T00:47:28;21.30;99.90
20654;DHT22;21083;50.898;4.902;2023-06-14T00:49:56;21.30;99.90
20654;DHT22;21083;50.898;4.902;2023-06-14T00:52:24;21.20;99.90
20654;DHT22;21083;50.898;4.902;2023-06-14T00:54:51;21.10;99.90
20654;DHT22;21083;50.898;4.902;2023-06-14T00:57:18;21.10;99.90
20654;DHT22;21083;50.898;4.902;2023-06-14T00:59:47;21.10;99.90
20654;DHT22;21083;50.898;4.902;2023-06-14T01:02:15;21.10;99.90
20654;DHT22;21083;50.898;4.902;2023-06-14T01:04:44;21.00;99.90
20654;DHT22;21083;50.898;4.902;2023-06-14T01:07:25;20.90;99.90
20654;DHT22;21083;50.898;4.902;2023-06-14T01:10:05;20.80;99.90
20654;DHT22;21083;50.898;4.902;2023-06-14T01:15:21;20.80;99.90
20654;DHT22;21083;50.898;4.902;2023-06-14T01:17:50;20.70;99.90
20654;DHT22;21083;50.898;4.902;2023-06-14T01:20:21;20.70;99.90
20654;DHT22;21083;50.898;4.902;2023-06-14T01:22:52;20.70;99.90
20654;DHT22;21083;50.898;4.902;2023-06-14T01:25:19;20.70;99.90
20654;DHT22;21083;50.898;4.902;2023-06-14T01:27:49;20.70;99.90
20654;DHT22;21083;50.898;4.902;2023-06-14T01:30:17;20.60;99.90
20654;DHT22;21083;50.898;4.902;2023-06-14T01:32:45;20.70;99.90
20654;DHT22;21083;50.898;4.902;2023-06-14T01:35:13;20.70;99.90
20654;DHT22;21083;50.898;4.902;2023-06-14T01:37:40;20.80;99.90
20654;DHT22;21083;50.898;4.902;2023-06-14T01:40:10;20.70;99.90
20654;DHT22;21083;50.898;4.902;2023-06-14T01:42:38;20.70;99.90
20654;DHT22;21083;50.898;4.902;2023-06-14T01:45:07;20.60;99.90
20654;DHT22;21083;50.898;4.902;2023-06-14T01:47:35;20.60;99.90
20654;DHT22;21083;50.898;4.902;2023-06-14T01:50:03;20.70;99.90
20654;DHT22;21083;50.898;4.902;2023-06-14T01:52:30;20.60;99.90
20654;DHT22;21083;50.898;4.902;2023-06-14T01:54:57;20.60;99.90
20654;DHT22;21083;50.898;4.902;2023-06-14T01:57:30;20.50;99.90
20654;DHT22;21083;50.898;4.902;2023-06-14T01:59:57;20.50;99.90
20654;DHT22;21083;50.898;4.902;2023-06-14T02:02:23;20.40;99.90
20654;DHT22;21083;50.898;4.902;2023-06-14T02:04:50;20.40;99.90
20654;DHT22;21083;50.898;4.902;2023-06-14T02:07:18;20.30;99.90
20654;DHT22;21083;50.898;4.902;2023-06-14T02:09:45;20.20;99.90
20654;DHT22;21083;50.898;4.902;2023-06-14T02:12:12;20.20;99.90
20654;DHT22;21083;50.898;4.902;2023-06-14T02:14:40;20.10;99.90
20654;DHT22;21083;50.898;4.902;2023-06-14T02:17:08;20.10;99.90
20654;DHT22;21083;50.898;4.902;2023-06-14T02:19:35;20.10;99.90
20654;DHT22;21083;50.898;4.902;2023-06-14T02:22:02;20.20;99.90
20654;DHT22;21083;50.898;4.902;2023-06-14T02:24:29;20.20;99.90
20654;DHT22;21083;50.898;4.902;2023-06-14T02:26:57;20.10;99.90
20654;DHT22;21083;50.898;4.902;2023-06-14T02:29:24;20.10;99.90
20654;DHT22;21083;50.898;4.902;2023-06-14T02:31:52;20.10;99.90
20654;DHT22;21083;50.898;4.902;2023-06-14T02:34:19;20.10;99.90
20654;DHT22;21083;50.898;4.902;2023-06-14T02:36:47;20.10;99.90
20654;DHT22;21083;50.898;4.902;2023-06-14T02:39:15;20.20;99.90
20654;DHT22;21083;50.898;4.902;2023-06-14T02:41:43;20.10;99.90
20654;DHT22;21083;50.898;4.902;2023-06-14T02:44:13;20.10;99.90
20654;DHT22;21083;50.898;4.902;2023-06-14T02:46:40;20.10;99.90
20654;DHT22;21083;50.898;4.902;2023-06-14T02:49:10;20.00;99.90
20654;DHT22;21083;50.898;4.902;2023-06-14T02:51:37;19.90;99.90
20654;DHT22;21083;50.898;4.902;2023-06-14T02:54:04;19.80;99.90
20654;DHT22;21083;50.898;4.902;2023-06-14T02:56:31;19.80;99.90
20654;DHT22;21083;50.898;4.902;2023-06-14T02:58:58;19.60;99.90
20654;DHT22;21083;50.898;4.902;2023-06-14T03:01:26;19.50;99.90
20654;DHT22;21083;50.898;4.902;2023-06-14T03:04:00;19.50;99.90
20654;DHT22;21083;50.898;4.902;2023-06-14T03:06:28;19.40;99.90
20654;DHT22;21083;50.898;4.902;2023-06-14T03:08:56;19.30;99.90
20654;DHT22;21083;50.898;4.902;2023-06-14T03:11:25;19.30;99.90
20654;DHT22;21083;50.898;4.902;2023-06-14T03:13:52;19.20;99.90
20654;DHT22;21083;50.898;4.902;2023-06-14T03:16:20;19.20;99.90
20654;DHT22;21083;50.898;4.902;2023-06-14T03:18:50;19.10;99.90
20654;DHT22;21083;50.898;4.902;2023-06-14T03:21:17;19.10;99.90
20654;DHT22;21083;50.898;4.902;2023-06-14T03:23:45;19.10;99.90
20654;DHT22;21083;50.898;4.902;2023-06-14T03:26:13;19.00;99.90
20654;DHT22;21083;50.898;4.902;2023-06-14T03:28:41;19.00;99.90
20654;DHT22;21083;50.898;4.902;2023-06-14T03:31:08;18.90;99.90
20654;DHT22;21083;50.898;4.902;2023-06-14T03:33:35;19.00;99.90
20654;DHT22;21083;50.898;4.902;2023-06-14T03:36:02;18.90;99.90
20654;DHT22;21083;50.898;4.902;2023-06-14T03:38:29;18.80;99.90
20654;DHT22;21083;50.898;4.902;2023-06-14T03:40:58;18.80;99.90
20654;DHT22;21083;50.898;4.902;2023-06-14T03:43:25;18.80;99.90
20654;DHT22;21083;50.898;4.902;2023-06-14T03:45:51;18.70;99.90
20654;DHT22;21083;50.898;4.902;2023-06-14T03:48:18;18.70;99.90
20654;DHT22;21083;50.898;4.902;2023-06-14T03:50:45;18.70;99.90
20654;DHT22;21083;50.898;4.902;2023-06-14T03:53:12;18.60;99.90
20654;DHT22;21083;50.898;4.902;2023-06-14T03:55:39;18.60;99.90
20654;DHT22;21083;50.898;4.902;2023-06-14T03:58:08;18.60;99.90
20654;DHT22;21083;50.898;4.902;2023-06-14T04:00:36;18.50;99.90
20654;DHT22;21083;50.898;4.902;2023-06-14T04:03:03;18.50;99.90
20654;DHT22;21083;50.898;4.902;2023-06-14T04:05:31;18.50;99.90
20654;DHT22;21083;50.898;4.902;2023-06-14T04:07:58;18.50;99.90
20654;DHT22;21083;50.898;4.902;2023-06-14T04:10:26;18.40;99.90
20654;DHT22;21083;50.898;4.902;2023-06-14T04:12:53;18.40;99.90
20654;DHT22;21083;50.898;4.902;2023-06-14T04:15:21;18.40;99.90
20654;DHT22;21083;50.898;4.902;2023-06-14T04:17:48;18.40;99.90
20654;DHT22;21083;50.898;4.902;2023-06-14T04:20:15;18.50;99.90
20654;DHT22;21083;50.898;4.902;2023-06-14T04:22:42;18.40;99.90
20654;DHT22;21083;50.898;4.902;2023-06-14T04:25:09;18.40;99.90
20654;DHT22;21083;50.898;4.902;2023-06-14T04:27:37;18.40;99.90
20654;DHT22;21083;50.898;4.902;2023-06-14T04:30:06;18.40;99.90
20654;DHT22;21083;50.898;4.902;2023-06-14T04:32:35;18.50;99.90
20654;DHT22;21083;50.898;4.902;2023-06-14T04:35:05;18.50;99.90
20654;DHT22;21083;50.898;4.902;2023-06-14T04:37:32;18.40;99.90
20654;DHT22;21083;50.898;4.902;2023-06-14T04:40:00;18.50;99.90
20654;DHT22;21083;50.898;4.902;2023-06-14T04:42:30;18.50;99.90
20654;DHT22;21083;50.898;4.902;2023-06-14T04:44:58;18.50;99.90
20654;DHT22;21083;50.898;4.902;2023-06-14T04:47:24;18.60;99.90
20654;DHT22;21083;50.898;4.902;2023-06-14T04:49:56;18.60;99.90
20654;DHT22;21083;50.898;4.902;2023-06-14T04:52:23;18.60;99.90
20654;DHT22;21083;50.898;4.902;2023-06-14T04:54:51;18.50;99.90
20654;DHT22;21083;50.898;4.902;2023-06-14T04:57:19;18.50;99.90
20654;DHT22;21083;50.898;4.902;2023-06-14T04:59:47;18.50;99.90
20654;DHT22;21083;50.898;4.902;2023-06-14T05:02:17;18.50;99.90
20654;DHT22;21083;50.898;4.902;2023-06-14T05:04:44;18.50;99.90
20654;DHT22;21083;50.898;4.902;2023-06-14T05:07:14;18.60;99.90
20654;DHT22;21083;50.898;4.902;2023-06-14T05:09:41;18.60;99.90
20654;DHT22;21083;50.898;4.902;2023-06-14T05:12:08;18.70;99.90
20654;DHT22;21083;50.898;4.902;2023-06-14T05:14:35;18.70;99.90
20654;DHT22;21083;50.898;4.902;2023-06-14T05:17:02;18.70;99.90
20654;DHT22;21083;50.898;4.902;2023-06-14T05:19:29;18.80;99.90
20654;DHT22;21083;50.898;4.902;2023-06-14T05:21:56;18.80;99.90
20654;DHT22;21083;50.898;4.902;2023-06-14T05:24:24;18.80;99.90
20654;DHT22;21083;50.898;4.902;2023-06-14T05:26:51;18.90;99.90
20654;DHT22;21083;50.898;4.902;2023-06-14T05:29:18;18.90;99.90
20654;DHT22;21083;50.898;4.902;2023-06-14T05:31:45;19.00;99.90
20654;DHT22;21083;50.898;4.902;2023-06-14T05:34:11;19.00;99.90
20654;DHT22;21083;50.898;4.902;2023-06-14T05:36:38;19.10;99.90
20654;DHT22;21083;50.898;4.902;2023-06-14T05:39:05;19.10;99.90
20654;DHT22;21083;50.898;4.902;2023-06-14T05:41:36;19.20;99.90
20654;DHT22;21083;50.898;4.902;2023-06-14T05:44:03;19.30;99.90
20654;DHT22;21083;50.898;4.902;2023-06-14T05:46:30;19.30;99.90
20654;DHT22;21083;50.898;4.902;2023-06-14T05:48:57;19.40;99.90
20654;DHT22;21083;50.898;4.902;2023-06-14T05:51:24;19.40;99.90
20654;DHT22;21083;50.898;4.902;2023-06-14T05:53:52;19.50;99.90
20654;DHT22;21083;50.898;4.902;2023-06-14T05:56:19;19.50;99.90
20654;DHT22;21083;50.898;4.902;2023-06-14T05:58:47;19.70;99.90
20654;DHT22;21083;50.898;4.902;2023-06-14T06:01:14;19.70;99.90
20654;DHT22;21083;50.898;4.902;2023-06-14T06:03:41;19.80;99.90
20654;DHT22;21083;50.898;4.902;2023-06-14T06:06:11;19.80;99.90
20654;DHT22;21083;50.898;4.902;2023-06-14T06:08:38;19.90;99.90
20654;DHT22;21083;50.898;4.902;2023-06-14T06:11:06;19.90;99.90
20654;DHT22;21083;50.898;4.902;2023-06-14T06:13:33;20.00;99.90
20654;DHT22;21083;50.898;4.902;2023-06-14T06:16:02;20.10;99.90
20654;DHT22;21083;50.898;4.902;2023-06-14T06:18:29;20.20;99.90
20654;DHT22;21083;50.898;4.902;2023-06-14T06:20:56;20.30;99.90
20654;DHT22;21083;50.898;4.902;2023-06-14T06:23:23;20.40;99.90
20654;DHT22;21083;50.898;4.902;2023-06-14T06:25:50;20.50;99.90
20654;DHT22;21083;50.898;4.902;2023-06-14T06:28:17;20.60;99.90
20654;DHT22;21083;50.898;4.902;2023-06-14T06:30:44;20.70;99.90
20654;DHT22;21083;50.898;4.902;2023-06-14T06:33:12;20.80;99.90
20654;DHT22;21083;50.898;4.902;2023-06-14T06:35:39;20.90;99.90
20654;DHT22;21083;50.898;4.902;2023-06-14T06:38:06;21.00;99.90
20654;DHT22;21083;50.898;4.902;2023-06-14T06:40:34;21.10;99.90
20654;DHT22;21083;50.898;4.902;2023-06-14T06:43:02;21.20;99.90
20654;DHT22;21083;50.898;4.902;2023-06-14T06:45:29;21.30;99.90
20654;DHT22;21083;50.898;4.902;2023-06-14T06:47:56;21.40;99.90
20654;DHT22;21083;50.898;4.902;2023-06-14T06:50:24;21.50;99.90
20654;DHT22;21083;50.898;4.902;2023-06-14T06:52:51;21.50;99.90
20654;DHT22;21083;50.898;4.902;2023-06-14T06:55:19;21.70;99.90
20654;DHT22;21083;50.898;4.902;2023-06-14T06:57:45;21.80;99.90
20654;DHT22;21083;50.898;4.902;2023-06-14T07:00:13;21.90;99.90
20654;DHT22;21083;50.898;4.902;2023-06-14T07:02:40;22.00;99.90
20654;DHT22;21083;50.898;4.902;2023-06-14T07:05:07;22.10;99.90
20654;DHT22;21083;50.898;4.902;2023-06-14T07:07:35;22.20;99.90
20654;DHT22;21083;50.898;4.902;2023-06-14T07:10:02;22.20;99.90
20654;DHT22;21083;50.898;4.902;2023-06-14T07:12:30;22.30;99.90
20654;DHT22;21083;50.898;4.902;2023-06-14T07:14:59;22.30;99.90
20654;DHT22;21083;50.898;4.902;2023-06-14T07:17:26;22.50;99.90
20654;DHT22;21083;50.898;4.902;2023-06-14T07:19:53;22.70;99.90
20654;DHT22;21083;50.898;4.902;2023-06-14T07:22:20;22.80;99.90
20654;DHT22;21083;50.898;4.902;2023-06-14T07:24:48;22.90;99.90
20654;DHT22;21083;50.898;4.902;2023-06-14T07:27:15;23.00;99.90
20654;DHT22;21083;50.898;4.902;2023-06-14T07:29:42;23.00;99.90
20654;DHT22;21083;50.898;4.902;2023-06-14T07:32:09;23.10;99.90
20654;DHT22;21083;50.898;4.902;2023-06-14T07:34:36;23.20;99.90
20654;DHT22;21083;50.898;4.902;2023-06-14T07:37:03;23.20;99.90
20654;DHT22;21083;50.898;4.902;2023-06-14T07:39:30;23.30;99.90
20654;DHT22;21083;50.898;4.902;2023-06-14T07:41:58;23.40;99.90
20654;DHT22;21083;50.898;4.902;2023-06-14T07:44:29;23.50;99.90
20654;DHT22;21083;50.898;4.902;2023-06-14T07:46:56;23.60;99.90
20654;DHT22;21083;50.898;4.902;2023-06-14T07:49:25;23.60;99.90
20654;DHT22;21083;50.898;4.902;2023-06-14T07:51:52;23.70;99.90
20654;DHT22;21083;50.898;4.902;2023-06-14T07:54:19;23.80;99.90
20654;DHT22;21083;50.898;4.902;2023-06-14T07:56:50;23.90;99.90
20654;DHT22;21083;50.898;4.902;2023-06-14T07:59:18;24.00;99.90
20654;DHT22;21083;50.898;4.902;2023-06-14T08:01:45;24.10;99.90
20654;DHT22;21083;50.898;4.902;2023-06-14T08:04:12;24.10;99.90
20654;DHT22;21083;50.898;4.902;2023-06-14T08:06:39;24.20;99.90
20654;DHT22;21083;50.898;4.902;2023-06-14T08:09:09;24.30;99.90
20654;DHT22;21083;50.898;4.902;2023-06-14T08:11:36;24.40;99.90
20654;DHT22;21083;50.898;4.902;2023-06-14T08:14:03;24.50;99.90
20654;DHT22;21083;50.898;4.902;2023-06-14T08:16:31;24.60;99.90
20654;DHT22;21083;50.898;4.902;2023-06-14T08:18:59;24.70;99.90
20654;DHT22;21083;50.898;4.902;2023-06-14T08:21:32;24.70;99.90
20654;DHT22;21083;50.898;4.902;2023-06-14T08:24:02;24.90;99.90
20654;DHT22;21083;50.898;4.902;2023-06-14T08:26:29;25.00;99.90
20654;DHT22;21083;50.898;4.902;2023-06-14T08:28:57;25.10;99.90
20654;DHT22;21083;50.898;4.902;2023-06-14T08:31:24;25.30;99.90
20654;DHT22;21083;50.898;4.902;2023-06-14T08:33:54;25.30;99.90
20654;DHT22;21083;50.898;4.902;2023-06-14T08:36:21;25.40;99.90
20654;DHT22;21083;50.898;4.902;2023-06-14T08:38:54;25.40;99.90
20654;DHT22;21083;50.898;4.902;2023-06-14T08:41:23;25.50;99.90
20654;DHT22;21083;50.898;4.902;2023-06-14T08:43:54;25.60;99.90
20654;DHT22;21083;50.898;4.902;2023-06-14T08:46:21;25.70;99.90
20654;DHT22;21083;50.898;4.902;2023-06-14T08:48:57;25.80;99.90
20654;DHT22;21083;50.898;4.902;2023-06-14T08:51:28;25.90;99.90
20654;DHT22;21083;50.898;4.902;2023-06-14T08:54:00;26.10;99.90
20654;DHT22;21083;50.898;4.902;2023-06-14T08:56:28;26.20;99.90
20654;DHT22;21083;50.898;4.902;2023-06-14T08:58:55;26.30;99.90
20654;DHT22;21083;50.898;4.902;2023-06-14T09:01:23;26.40;99.90
20654;DHT22;21083;50.898;4.902;2023-06-14T09:03:51;26.50;99.90
20654;DHT22;21083;50.898;4.902;2023-06-14T09:06:23;26.60;99.90
20654;DHT22;21083;50.898;4.902;2023-06-14T09:08:50;26.70;99.90
20654;DHT22;21083;50.898;4.902;2023-06-14T09:11:18;26.80;99.90
20654;DHT22;21083;50.898;4.902;2023-06-14T09:13:46;26.90;99.90
20654;DHT22;21083;50.898;4.902;2023-06-14T09:16:13;27.10;99.90
20654;DHT22;21083;50.898;4.902;2023-06-14T09:18:41;27.10;99.90
20654;DHT22;21083;50.898;4.902;2023-06-14T09:21:13;27.20;99.90
20654;DHT22;21083;50.898;4.902;2023-06-14T09:23:44;27.30;99.90
20654;DHT22;21083;50.898;4.902;2023-06-14T09:26:13;27.30;99.90
20654;DHT22;21083;50.898;4.902;2023-06-14T09:28:43;27.30;99.90
20654;DHT22;21083;50.898;4.902;2023-06-14T09:31:11;27.40;99.90
20654;DHT22;21083;50.898;4.902;2023-06-14T09:33:38;27.60;99.90
20654;DHT22;21083;50.898;4.902;2023-06-14T09:36:10;27.70;99.90
20654;DHT22;21083;50.898;4.902;2023-06-14T09:38:40;27.80;99.90
20654;DHT22;21083;50.898;4.902;2023-06-14T09:41:08;27.90;99.90
20654;DHT22;21083;50.898;4.902;2023-06-14T09:43:38;28.00;99.90
20654;DHT22;21083;50.898;4.902;2023-06-14T09:46:05;28.00;99.90
20654;DHT22;21083;50.898;4.902;2023-06-14T09:48:33;28.20;99.90
20654;DHT22;21083;50.898;4.902;2023-06-14T09:51:01;28.30;99.90
20654;DHT22;21083;50.898;4.902;2023-06-14T09:53:30;28.50;99.90
20654;DHT22;21083;50.898;4.902;2023-06-14T09:55:58;28.60;99.90
20654;DHT22;21083;50.898;4.902;2023-06-14T09:58:28;28.80;99.90
20654;DHT22;21083;50.898;4.902;2023-06-14T10:00:57;28.90;99.90
20654;DHT22;21083;50.898;4.902;2023-06-14T10:03:28;28.90;99.90
20654;DHT22;21083;50.898;4.902;2023-06-14T10:05:58;29.00;99.90
20654;DHT22;21083;50.898;4.902;2023-06-14T10:08:31;29.10;99.90
20654;DHT22;21083;50.898;4.902;2023-06-14T10:10:59;29.30;99.90
20654;DHT22;21083;50.898;4.902;2023-06-14T10:13:29;29.30;99.90
20654;DHT22;21083;50.898;4.902;2023-06-14T10:16:04;29.40;99.90
20654;DHT22;21083;50.898;4.902;2023-06-14T10:18:38;29.40;99.90
20654;DHT22;21083;50.898;4.902;2023-06-14T10:21:16;29.60;99.90
20654;DHT22;21083;50.898;4.902;2023-06-14T10:23:45;29.80;99.90
20654;DHT22;21083;50.898;4.902;2023-06-14T10:26:21;29.80;99.90
20654;DHT22;21083;50.898;4.902;2023-06-14T10:29:01;29.80;99.90
20654;DHT22;21083;50.898;4.902;2023-06-14T10:31:44;29.90;99.90
20654;DHT22;21083;50.898;4.902;2023-06-14T10:34:12;29.90;99.90
20654;DHT22;21083;50.898;4.902;2023-06-14T10:36:42;29.90;99.90
20654;DHT22;21083;50.898;4.902;2023-06-14T10:39:14;30.10;99.90
20654;DHT22;21083;50.898;4.902;2023-06-14T10:41:50;30.20;99.90
20654;DHT22;21083;50.898;4.902;2023-06-14T10:44:39;30.30;99.90
20654;DHT22;21083;50.898;4.902;2023-06-14T10:47:14;30.40;99.90
20654;DHT22;21083;50.898;4.902;2023-06-14T10:49:50;30.30;99.90
20654;DHT22;21083;50.898;4.902;2023-06-14T10:52:22;30.40;99.90
20654;DHT22;21083;50.898;4.902;2023-06-14T10:55:03;30.40;99.90
20654;DHT22;21083;50.898;4.902;2023-06-14T10:57:31;30.50;99.90
20654;DHT22;21083;50.898;4.902;2023-06-14T11:00:01;30.60;99.90
20654;DHT22;21083;50.898;4.902;2023-06-14T11:03:15;30.70;99.90
20654;DHT22;21083;50.898;4.902;2023-06-14T11:05:50;30.80;99.90
20654;DHT22;21083;50.898;4.902;2023-06-14T11:11:32;31.00;99.90
20654;DHT22;21083;50.898;4.902;2023-06-14T11:14:00;30.90;99.90
20654;DHT22;21083;50.898;4.902;2023-06-14T11:16:29;31.10;99.90
20654;DHT22;21083;50.898;4.902;2023-06-14T11:19:00;31.20;99.90
20654;DHT22;21083;50.898;4.902;2023-06-14T11:21:27;31.00;99.90
20654;DHT22;21083;50.898;4.902;2023-06-14T11:23:57;31.10;99.90
20654;DHT22;21083;50.898;4.902;2023-06-14T11:26:27;31.30;99.90
20654;DHT22;21083;50.898;4.902;2023-06-14T11:28:59;31.40;99.90
20654;DHT22;21083;50.898;4.902;2023-06-14T11:31:26;31.50;99.90
20654;DHT22;21083;50.898;4.902;2023-06-14T11:33:55;31.50;99.90
20654;DHT22;21083;50.898;4.902;2023-06-14T11:36:26;31.60;99.90
20654;DHT22;21083;50.898;4.902;2023-06-14T11:38:58;31.60;97.90
20654;DHT22;21083;50.898;4.902;2023-06-14T11:41:37;31.70;98.50
20654;DHT22;21083;50.898;4.902;2023-06-14T11:44:05;31.70;98.00
20654;DHT22;21083;50.898;4.902;2023-06-14T11:46:32;31.70;98.90
20654;DHT22;21083;50.898;4.902;2023-06-14T11:49:01;31.80;98.30
20654;DHT22;21083;50.898;4.902;2023-06-14T11:51:28;32.00;96.80
20654;DHT22;21083;50.898;4.902;2023-06-14T11:53:56;32.10;95.70
20654;DHT22;21083;50.898;4.902;2023-06-14T11:56:24;32.00;95.40
20654;DHT22;21083;50.898;4.902;2023-06-14T11:58:51;31.90;97.00
20654;DHT22;21083;50.898;4.902;2023-06-14T12:01:18;31.90;96.60
20654;DHT22;21083;50.898;4.902;2023-06-14T12:03:49;31.80;96.50
20654;DHT22;21083;50.898;4.902;2023-06-14T12:06:26;31.90;96.20
20654;DHT22;21083;50.898;4.902;2023-06-14T12:08:56;32.00;95.90
20654;DHT22;21083;50.898;4.902;2023-06-14T12:11:23;32.10;96.90
20654;DHT22;21083;50.898;4.902;2023-06-14T12:13:50;32.30;96.90
20654;DHT22;21083;50.898;4.902;2023-06-14T12:16:17;32.40;96.10
20654;DHT22;21083;50.898;4.902;2023-06-14T12:18:44;32.50;96.80
20654;DHT22;21083;50.898;4.902;2023-06-14T12:21:11;32.70;96.90
20654;DHT22;21083;50.898;4.902;2023-06-14T12:23:42;32.80;97.50
20654;DHT22;21083;50.898;4.902;2023-06-14T12:26:11;32.80;95.00
20654;DHT22;21083;50.898;4.902;2023-06-14T12:28:40;32.80;94.60
20654;DHT22;21083;50.898;4.902;2023-06-14T12:31:07;32.90;95.70
20654;DHT22;21083;50.898;4.902;2023-06-14T12:33:34;32.90;96.00
20654;DHT22;21083;50.898;4.902;2023-06-14T12:36:03;32.90;93.30
20654;DHT22;21083;50.898;4.902;2023-06-14T12:38:30;32.70;95.50
20654;DHT22;21083;50.898;4.902;2023-06-14T12:40:59;32.70;95.50
20654;DHT22;21083;50.898;4.902;2023-06-14T12:43:26;32.80;94.00
20654;DHT22;21083;50.898;4.902;2023-06-14T12:45:53;33.00;94.70
20654;DHT22;21083;50.898;4.902;2023-06-14T12:48:20;33.10;96.00
20654;DHT22;21083;50.898;4.902;2023-06-14T12:50:48;33.40;95.50
20654;DHT22;21083;50.898;4.902;2023-06-14T12:53:14;33.50;95.40
20654;DHT22;21083;50.898;4.902;2023-06-14T12:55:42;33.60;94.40
20654;DHT22;21083;50.898;4.902;2023-06-14T12:58:10;33.80;93.40
20654;DHT22;21083;50.898;4.902;2023-06-14T13:00:39;34.00;93.90
20654;DHT22;21083;50.898;4.902;2023-06-14T13:03:06;34.10;93.30
20654;DHT22;21083;50.898;4.902;2023-06-14T13:05:33;34.00;91.50
20654;DHT22;21083;50.898;4.902;2023-06-14T13:08:00;33.80;91.80
20654;DHT22;21083;50.898;4.902;2023-06-14T13:10:27;33.60;93.30
20654;DHT22;21083;50.898;4.902;2023-06-14T13:12:54;33.80;92.50
20654;DHT22;21083;50.898;4.902;2023-06-14T13:15:25;33.80;91.50
20654;DHT22;21083;50.898;4.902;2023-06-14T13:17:52;33.90;90.50
20654;DHT22;21083;50.898;4.902;2023-06-14T13:20:19;33.90;93.50
20654;DHT22;21083;50.898;4.902;2023-06-14T13:22:46;33.80;90.70
20654;DHT22;21083;50.898;4.902;2023-06-14T13:25:13;34.00;90.70
20654;DHT22;21083;50.898;4.902;2023-06-14T13:27:39;34.10;93.30
20654;DHT22;21083;50.898;4.902;2023-06-14T13:30:07;34.30;91.50
20654;DHT22;21083;50.898;4.902;2023-06-14T13:32:36;34.20;90.20
20654;DHT22;21083;50.898;4.902;2023-06-14T13:35:04;34.30;90.50
20654;DHT22;21083;50.898;4.902;2023-06-14T13:37:31;34.30;90.80
20654;DHT22;21083;50.898;4.902;2023-06-14T13:39:58;34.30;91.20
20654;DHT22;21083;50.898;4.902;2023-06-14T13:42:25;34.40;90.60
20654;DHT22;21083;50.898;4.902;2023-06-14T13:44:52;34.20;86.90
20654;DHT22;21083;50.898;4.902;2023-06-14T13:47:19;34.30;90.50
20654;DHT22;21083;50.898;4.902;2023-06-14T13:49:47;34.30;92.50
20654;DHT22;21083;50.898;4.902;2023-06-14T13:52:14;34.40;91.10
20654;DHT22;21083;50.898;4.902;2023-06-14T13:54:41;34.30;90.50
20654;DHT22;21083;50.898;4.902;2023-06-14T13:57:09;34.30;90.50
20654;DHT22;21083;50.898;4.902;2023-06-14T13:59:38;34.20;90.40
20654;DHT22;21083;50.898;4.902;2023-06-14T14:02:05;34.30;88.50
20654;DHT22;21083;50.898;4.902;2023-06-14T14:04:33;34.30;91.90
20654;DHT22;21083;50.898;4.902;2023-06-14T14:07:01;34.40;90.70
20654;DHT22;21083;50.898;4.902;2023-06-14T14:09:28;34.30;90.50
20654;DHT22;21083;50.898;4.902;2023-06-14T14:11:56;34.30;90.80
20654;DHT22;21083;50.898;4.902;2023-06-14T14:14:22;34.40;90.70
20654;DHT22;21083;50.898;4.902;2023-06-14T14:16:50;34.50;91.40
20654;DHT22;21083;50.898;4.902;2023-06-14T14:19:18;34.80;90.30
20654;DHT22;21083;50.898;4.902;2023-06-14T14:21:46;34.60;91.00
20654;DHT22;21083;50.898;4.902;2023-06-14T14:24:14;34.50;90.80
20654;DHT22;21083;50.898;4.902;2023-06-14T14:26:41;34.60;90.60
20654;DHT22;21083;50.898;4.902;2023-06-14T14:29:08;34.60;90.80
20654;DHT22;21083;50.898;4.902;2023-06-14T14:31:37;34.50;90.30
20654;DHT22;21083;50.898;4.902;2023-06-14T14:34:04;34.60;90.70
20654;DHT22;21083;50.898;4.902;2023-06-14T14:36:31;34.80;90.30
20654;DHT22;21083;50.898;4.902;2023-06-14T14:38:58;34.90;89.10
20654;DHT22;21083;50.898;4.902;2023-06-14T14:41:27;34.90;88.50
20654;DHT22;21083;50.898;4.902;2023-06-14T14:43:54;34.90;89.10
20654;DHT22;21083;50.898;4.902;2023-06-14T14:46:21;34.90;90.70
20654;DHT22;21083;50.898;4.902;2023-06-14T14:48:48;35.10;88.90
20654;DHT22;21083;50.898;4.902;2023-06-14T14:51:15;34.90;91.40
20654;DHT22;21083;50.898;4.902;2023-06-14T14:53:42;34.70;90.40
20654;DHT22;21083;50.898;4.902;2023-06-14T14:56:08;34.80;90.90
20654;DHT22;21083;50.898;4.902;2023-06-14T14:58:38;34.70;90.20
20654;DHT22;21083;50.898;4.902;2023-06-14T15:01:05;34.90;91.40
20654;DHT22;21083;50.898;4.902;2023-06-14T15:03:33;35.10;90.10
20654;DHT22;21083;50.898;4.902;2023-06-14T15:06:00;34.80;86.70
20654;DHT22;21083;50.898;4.902;2023-06-14T15:08:26;34.90;90.50
20654;DHT22;21083;50.898;4.902;2023-06-14T15:10:53;35.10;90.10
20654;DHT22;21083;50.898;4.902;2023-06-14T15:13:20;35.00;90.10
20654;DHT22;21083;50.898;4.902;2023-06-14T15:15:50;35.00;90.90
20654;DHT22;21083;50.898;4.902;2023-06-14T15:18:16;34.90;89.80
20654;DHT22;21083;50.898;4.902;2023-06-14T15:20:46;34.70;89.20
20654;DHT22;21083;50.898;4.902;2023-06-14T15:23:13;34.80;88.80
20654;DHT22;21083;50.898;4.902;2023-06-14T15:25:45;34.50;89.80
20654;DHT22;21083;50.898;4.902;2023-06-14T15:28:12;34.40;88.20
20654;DHT22;21083;50.898;4.902;2023-06-14T15:30:39;34.30;89.70
20654;DHT22;21083;50.898;4.902;2023-06-14T15:33:07;34.40;90.50
20654;DHT22;21083;50.898;4.902;2023-06-14T15:35:34;34.40;90.50
20654;DHT22;21083;50.898;4.902;2023-06-14T15:38:01;34.30;88.30
20654;DHT22;21083;50.898;4.902;2023-06-14T15:40:28;34.40;88.30
20654;DHT22;21083;50.898;4.902;2023-06-14T15:42:55;34.50;90.00